createdAt,value
2018-08-24T00:01:34.309Z,5.50
2018-08-24T00:04:07.184Z,4.92
2018-08-24T00:06:35.751Z,5.22
2018-08-24T00:09:06.077Z,5.47
2018-08-24T00:11:34.294Z,5.50
2018-08-24T00:14:02.500Z,5.22
2018-08-24T00:16:36.188Z,5.05
2018-08-24T00:19:05.004Z,5.58
2018-08-24T00:21:33.238Z,5.25
2018-08-24T00:24:01.471Z,5.92
2018-08-24T00:26:29.687Z,5.62
2018-08-24T00:28:57.915Z,5.67
2018-08-24T00:31:26.536Z,5.53
2018-08-24T00:33:54.846Z,5.70
2018-08-24T00:36:25.167Z,5.40
2018-08-24T00:38:53.494Z,5.47
2018-08-24T00:41:21.713Z,5.20
2018-08-24T00:43:49.976Z,5.97
2018-08-24T00:46:18.472Z,6.15
2018-08-24T00:48:47.189Z,5.80
2018-08-24T00:51:15.453Z,5.67
2018-08-24T00:53:43.698Z,5.55
2018-08-24T00:56:12.317Z,5.85
2018-08-24T00:58:40.603Z,5.40
2018-08-24T01:01:09.402Z,5.65
2018-08-24T01:03:38.126Z,6.12
2018-08-24T01:06:06.665Z,5.30
2018-08-24T01:08:35.269Z,5.90
2018-08-24T01:11:03.494Z,6.47
2018-08-24T01:13:31.754Z,6.05
2018-08-24T01:16:01.854Z,5.40
2018-08-24T01:18:35.583Z,6.10
2018-08-24T01:21:03.849Z,5.50
2018-08-24T01:23:33.257Z,6.08
2018-08-24T01:26:01.490Z,5.67
2018-08-24T01:28:30.727Z,6.33
2018-08-24T01:31:04.867Z,6.20
2018-08-24T01:33:33.544Z,6.62
2018-08-24T01:36:01.805Z,5.92
2018-08-24T01:38:29.998Z,6.28
2018-08-24T01:40:58.191Z,6.42
2018-08-24T01:43:26.389Z,6.25
2018-08-24T01:45:59.966Z,6.30
2018-08-24T01:48:28.193Z,7.08
2018-08-24T01:50:56.398Z,6.78
2018-08-24T01:53:24.614Z,6.80
2018-08-24T01:55:52.850Z,5.95
2018-08-24T01:58:21.063Z,7.25
2018-08-24T02:00:49.312Z,7.15
2018-08-24T02:03:17.523Z,6.92
2018-08-24T02:05:45.746Z,6.47
2018-08-24T02:08:13.979Z,6.17
2018-08-24T02:10:42.234Z,5.95
2018-08-24T02:13:15.887Z,6.50
2018-08-24T02:15:46.952Z,5.87
2018-08-24T02:18:20.627Z,5.62
2018-08-24T02:20:54.165Z,5.67
2018-08-24T02:23:22.350Z,5.35
2018-08-24T02:25:50.592Z,5.30
2018-08-24T02:28:18.797Z,5.78
2018-08-24T02:30:47.030Z,5.90
2018-08-24T02:33:15.288Z,6.05
2018-08-24T02:35:43.543Z,5.20
2018-08-24T02:38:11.824Z,5.30
2018-08-24T02:40:40.087Z,5.37
2018-08-24T02:43:08.336Z,5.28
2018-08-24T02:45:36.539Z,5.92
2018-08-24T02:48:04.799Z,5.10
2018-08-24T02:50:33.051Z,5.83
2018-08-24T02:53:01.292Z,4.90
2018-08-24T02:55:29.530Z,5.67
2018-08-24T02:57:57.752Z,5.95
2018-08-24T03:00:26.016Z,5.78
2018-08-24T03:02:54.256Z,5.28
2018-08-24T03:05:22.660Z,6.05
2018-08-24T03:07:50.737Z,5.58
2018-08-24T03:10:18.987Z,5.85
2018-08-24T03:12:47.244Z,5.92
2018-08-24T03:15:15.577Z,5.78
2018-08-24T03:17:56.227Z,5.90
2018-08-24T03:20:25.248Z,5.97
2018-08-24T03:22:53.920Z,5.90
2018-08-24T03:25:22.172Z,5.65
2018-08-24T03:27:50.403Z,5.62
2018-08-24T03:30:18.673Z,5.40
2018-08-24T03:32:46.916Z,5.40
2018-08-24T03:35:15.745Z,5.45
2018-08-24T03:37:43.959Z,5.92
2018-08-24T03:40:12.189Z,6.03
2018-08-24T03:42:40.419Z,5.62
2018-08-24T03:45:08.629Z,5.92
2018-08-24T03:47:36.840Z,5.90
2018-08-24T03:50:05.081Z,5.85
2018-08-24T03:52:33.308Z,6.20
2018-08-24T03:55:01.524Z,6.53
2018-08-24T03:57:29.776Z,6.25
2018-08-24T03:59:57.980Z,6.60
2018-08-24T04:02:26.187Z,6.75
2018-08-24T04:04:54.378Z,6.53
2018-08-24T04:07:22.630Z,6.10
2018-08-24T04:09:50.847Z,6.22
2018-08-24T04:12:25.509Z,6.15
2018-08-24T04:14:53.726Z,6.58
2018-08-24T04:17:27.371Z,6.42
2018-08-24T04:19:55.590Z,7.28
2018-08-24T04:22:23.851Z,6.80
2018-08-24T04:24:52.100Z,6.05
2018-08-24T04:27:20.362Z,5.70
2018-08-24T04:29:48.602Z,5.90
2018-08-24T04:32:16.854Z,6.22
2018-08-24T04:34:45.182Z,5.72
2018-08-24T04:37:13.419Z,6.08
2018-08-24T04:39:41.648Z,5.87
2018-08-24T04:42:09.880Z,6.45
2018-08-24T04:44:38.091Z,5.92
2018-08-24T04:47:06.330Z,5.72
2018-08-24T04:49:34.591Z,5.83
2018-08-24T04:52:02.853Z,6.00
2018-08-24T04:54:31.111Z,5.90
2018-08-24T04:56:59.381Z,5.97
2018-08-24T04:59:27.620Z,6.17
2018-08-24T05:01:55.836Z,6.45
2018-08-24T05:04:24.112Z,6.35
2018-08-24T05:06:52.381Z,6.20
2018-08-24T05:09:20.629Z,6.08
2018-08-24T05:11:48.888Z,6.70
2018-08-24T05:14:17.156Z,5.97
2018-08-24T05:16:45.397Z,5.65
2018-08-24T05:19:13.708Z,6.58
2018-08-24T05:21:41.938Z,5.92
2018-08-24T05:24:10.193Z,5.78
2018-08-24T05:26:38.430Z,6.05
2018-08-24T05:29:07.352Z,6.85
2018-08-24T05:31:35.586Z,6.55
2018-08-24T05:34:03.854Z,6.53
2018-08-24T05:36:32.106Z,7.05
2018-08-24T05:39:00.337Z,7.28
2018-08-24T05:41:28.580Z,6.72
2018-08-24T05:43:56.806Z,7.45
2018-08-24T05:46:25.034Z,7.20
2018-08-24T05:48:53.370Z,7.25
2018-08-24T05:51:21.540Z,6.62
2018-08-24T05:53:49.767Z,6.65
2018-08-24T05:56:18.024Z,6.17
2018-08-24T05:58:46.260Z,6.70
2018-08-24T06:01:14.483Z,5.80
2018-08-24T06:03:42.706Z,6.10
2018-08-24T06:06:10.916Z,6.58
2018-08-24T06:08:39.125Z,6.92
2018-08-24T06:11:07.383Z,6.47
2018-08-24T06:13:35.603Z,6.50
2018-08-24T06:16:03.816Z,6.62
2018-08-24T06:18:32.045Z,6.72
2018-08-24T06:21:00.260Z,7.12
2018-08-24T06:23:28.514Z,6.92
2018-08-24T06:25:56.739Z,6.83
2018-08-24T06:28:24.963Z,6.00
2018-08-24T06:30:53.191Z,6.28
2018-08-24T06:33:23.442Z,7.58
2018-08-24T06:35:51.983Z,6.72
2018-08-24T06:38:20.251Z,7.05
2018-08-24T06:40:48.472Z,6.90
2018-08-24T06:43:16.687Z,7.08
2018-08-24T06:45:44.941Z,6.45
2018-08-24T06:48:13.166Z,7.08
2018-08-24T06:50:41.377Z,6.90
2018-08-24T06:53:09.712Z,7.10
2018-08-24T06:55:37.830Z,6.50
2018-08-24T06:58:06.059Z,7.35
2018-08-24T07:00:34.288Z,6.85
2018-08-24T07:03:02.853Z,7.35
2018-08-24T07:05:31.406Z,7.65
2018-08-24T07:07:59.612Z,7.90
2018-08-24T07:10:27.842Z,7.60
2018-08-24T07:12:56.168Z,7.65
2018-08-24T07:15:24.362Z,7.47
2018-08-24T07:17:57.918Z,7.60
2018-08-24T07:20:26.178Z,6.90
2018-08-24T07:22:54.373Z,6.62
2018-08-24T07:25:22.604Z,6.67
2018-08-24T07:27:50.827Z,7.03
2018-08-24T07:30:19.463Z,6.97
2018-08-24T07:32:47.698Z,7.20
2018-08-24T07:35:16.065Z,6.08
2018-08-24T07:37:44.316Z,6.85
2018-08-24T07:40:12.580Z,6.42
2018-08-24T07:42:40.810Z,6.37
2018-08-24T07:45:09.064Z,6.58
2018-08-24T07:47:37.317Z,6.25
2018-08-24T07:50:05.775Z,6.25
2018-08-24T07:52:34.027Z,6.00
2018-08-24T07:55:02.284Z,6.53
2018-08-24T07:57:30.528Z,5.92
2018-08-24T07:59:58.776Z,6.45
2018-08-24T08:02:32.325Z,6.50
2018-08-24T08:05:00.588Z,6.12
2018-08-24T08:07:28.836Z,6.55
2018-08-24T08:09:57.089Z,6.00
2018-08-24T08:12:25.325Z,6.55
2018-08-24T08:14:59.000Z,6.00
2018-08-24T08:17:27.223Z,6.62
2018-08-24T08:19:55.523Z,5.55
2018-08-24T08:22:23.764Z,5.65
2018-08-24T08:24:51.984Z,6.25
2018-08-24T08:27:20.208Z,4.67
2018-08-24T08:29:53.721Z,4.03
2018-08-24T08:32:21.975Z,5.05
2018-08-24T08:34:51.228Z,5.70
2018-08-24T08:37:20.009Z,6.00
2018-08-24T08:39:48.322Z,5.35
2018-08-24T08:42:16.586Z,6.60
2018-08-24T08:44:44.828Z,4.22
2018-08-24T08:47:13.640Z,4.12
2018-08-24T08:49:41.909Z,3.45
2018-08-24T08:52:10.813Z,2.95
2018-08-24T08:54:39.086Z,3.40
2018-08-24T08:57:07.503Z,3.17
2018-08-24T08:59:35.745Z,3.67
2018-08-24T09:02:04.013Z,3.45
2018-08-24T09:04:32.233Z,4.03
2018-08-24T09:07:00.467Z,4.10
2018-08-24T09:09:28.726Z,4.65
2018-08-24T09:11:56.956Z,4.58
2018-08-24T09:14:25.186Z,4.25
2018-08-24T09:16:53.436Z,4.03
2018-08-24T09:19:27.139Z,4.35
2018-08-24T09:23:01.726Z,4.15
2018-08-24T09:25:35.416Z,4.15
2018-08-24T09:28:09.156Z,4.20
2018-08-24T09:30:41.715Z,4.87
2018-08-24T09:33:10.098Z,4.47
2018-08-24T09:35:38.361Z,4.58
2018-08-24T09:38:06.599Z,4.47
2018-08-24T09:40:40.380Z,4.60
2018-08-24T09:43:14.052Z,4.87
2018-08-24T09:45:42.302Z,5.33
2018-08-24T09:48:15.987Z,5.45
2018-08-24T09:50:49.671Z,5.50
2018-08-24T09:53:23.416Z,5.25
2018-08-24T09:58:26.355Z,6.00
2018-08-24T10:00:59.876Z,6.00
2018-08-24T10:03:33.606Z,6.40
2018-08-24T10:06:07.321Z,6.70
2018-08-24T10:08:41.022Z,6.33
2018-08-24T10:11:09.259Z,6.90
2018-08-24T10:13:37.470Z,6.72
2018-08-24T10:16:05.710Z,7.62
2018-08-24T10:18:33.977Z,6.80
2018-08-24T10:21:02.163Z,7.55
2018-08-24T10:23:30.372Z,7.17
2018-08-24T10:25:58.572Z,7.30
2018-08-24T10:28:26.785Z,6.92
2018-08-24T10:30:55.015Z,6.42
2018-08-24T10:33:23.428Z,6.03
2018-08-24T10:35:51.692Z,6.03
2018-08-24T10:38:19.926Z,5.25
2018-08-24T10:40:48.231Z,5.90
2018-08-24T10:43:16.815Z,6.05
2018-08-24T10:45:45.305Z,5.90
2018-08-24T10:48:13.619Z,5.70
2018-08-24T10:50:41.872Z,5.47
2018-08-24T10:53:10.132Z,5.47
2018-08-24T10:55:38.391Z,4.90
2018-08-24T10:58:06.636Z,4.92
2018-08-24T11:00:34.903Z,4.80
2018-08-24T11:03:03.149Z,5.55
2018-08-24T11:05:31.420Z,5.28
2018-08-24T11:07:59.662Z,5.35
2018-08-24T11:10:27.967Z,5.78
2018-08-24T11:12:56.241Z,5.47
2018-08-24T11:15:24.519Z,5.03
2018-08-24T11:17:58.078Z,5.25
2018-08-24T11:20:26.331Z,5.20
2018-08-24T11:22:54.618Z,5.08
2018-08-24T11:25:23.082Z,5.15
2018-08-24T11:27:51.343Z,4.72
2018-08-24T11:30:19.569Z,5.28
2018-08-24T11:32:47.845Z,4.25
2018-08-24T11:35:16.075Z,4.90
2018-08-24T11:37:44.337Z,4.42
2018-08-24T11:40:12.586Z,4.83
2018-08-24T11:42:40.825Z,4.70
2018-08-24T11:45:09.079Z,4.55
2018-08-24T11:47:37.289Z,5.03
2018-08-24T11:50:05.991Z,5.10
2018-08-24T11:52:34.226Z,4.87
2018-08-24T11:55:02.457Z,4.37
2018-08-24T11:57:30.701Z,4.33
2018-08-24T11:59:58.981Z,4.58
2018-08-24T12:02:27.252Z,4.95
2018-08-24T12:04:55.484Z,5.28
2018-08-24T12:07:23.706Z,4.83
2018-08-24T12:09:51.908Z,5.15
2018-08-24T12:12:20.158Z,4.83
2018-08-24T12:14:48.371Z,5.33
2018-08-24T12:17:22.077Z,4.83
2018-08-24T12:19:50.289Z,4.78
2018-08-24T12:22:18.531Z,4.65
2018-08-24T12:24:46.757Z,5.83
2018-08-24T12:27:15.064Z,4.47
2018-08-24T12:29:43.270Z,4.47
2018-08-24T12:32:11.505Z,5.03
2018-08-24T12:34:39.739Z,4.87
2018-08-24T12:37:10.848Z,4.97
2018-08-24T12:39:39.347Z,4.47
2018-08-24T12:42:08.666Z,5.40
2018-08-24T12:44:37.118Z,5.30
2018-08-24T12:47:05.421Z,5.10
2018-08-24T12:49:33.740Z,4.95
2018-08-24T12:52:02.294Z,5.30
2018-08-24T12:54:30.523Z,5.15
2018-08-24T12:56:58.760Z,5.25
2018-08-24T12:59:27.003Z,5.37
2018-08-24T13:01:55.234Z,5.75
2018-08-24T13:04:23.458Z,5.10
2018-08-24T13:06:51.684Z,5.30
2018-08-24T13:09:19.917Z,4.97
2018-08-24T13:11:48.148Z,5.15
2018-08-24T13:14:16.435Z,5.55
2018-08-24T13:16:44.978Z,5.85
2018-08-24T13:19:13.226Z,6.97
2018-08-24T13:21:41.724Z,7.03
2018-08-24T13:24:09.930Z,6.67
2018-08-24T13:26:38.152Z,6.65
2018-08-24T13:29:06.467Z,6.35
2018-08-24T13:31:34.708Z,6.55
2018-08-24T13:34:02.932Z,6.45
2018-08-24T13:36:31.143Z,6.20
2018-08-24T13:38:59.452Z,6.97
2018-08-24T13:41:27.635Z,7.37
2018-08-24T13:43:55.827Z,6.60
2018-08-24T13:46:24.086Z,7.05
2018-08-24T13:48:52.518Z,6.78
2018-08-24T13:51:20.761Z,7.40
2018-08-24T13:53:49.011Z,6.40
2018-08-24T13:56:17.325Z,6.92
2018-08-24T13:58:45.549Z,6.85
2018-08-24T14:01:14.449Z,7.42
2018-08-24T14:03:42.682Z,7.75
2018-08-24T14:06:10.903Z,7.55
2018-08-24T14:08:39.108Z,7.85
2018-08-24T14:11:07.370Z,7.60
2018-08-24T14:13:35.677Z,7.90
2018-08-24T14:16:03.833Z,8.58
2018-08-24T14:18:32.039Z,8.65
2018-08-24T14:21:00.256Z,8.05
2018-08-24T14:23:28.496Z,8.05
2018-08-24T14:25:56.731Z,7.85
2018-08-24T14:28:24.952Z,7.70
2018-08-24T14:30:53.211Z,7.42
2018-08-24T14:33:21.411Z,7.17
2018-08-24T14:35:49.583Z,7.30
2018-08-24T14:38:17.870Z,6.58
2018-08-24T14:40:46.007Z,7.12
2018-08-24T14:43:14.236Z,7.22
2018-08-24T14:45:42.457Z,7.75
2018-08-24T14:48:10.725Z,7.08
2018-08-24T14:50:38.877Z,7.92
2018-08-24T14:53:07.087Z,7.70
2018-08-24T14:55:35.286Z,7.87
2018-08-24T14:58:03.497Z,7.85
2018-08-24T15:00:31.740Z,7.35
2018-08-24T15:02:59.991Z,6.70
2018-08-24T15:05:28.263Z,6.33
2018-08-24T15:07:56.511Z,6.80
2018-08-24T15:10:24.711Z,6.60
2018-08-24T15:12:52.928Z,5.95
2018-08-24T15:15:21.121Z,5.85
2018-08-24T15:17:49.333Z,5.95
2018-08-24T15:20:17.534Z,6.12
2018-08-24T15:22:45.782Z,6.45
2018-08-24T15:25:14.303Z,6.20
2018-08-24T15:27:42.507Z,6.20
2018-08-24T15:30:10.707Z,6.20
2018-08-24T15:32:38.943Z,6.45
2018-08-24T15:35:07.436Z,5.75
2018-08-24T15:37:35.631Z,6.00
2018-08-24T15:40:03.834Z,5.85
2018-08-24T15:42:32.051Z,5.78
2018-08-24T15:45:00.272Z,5.65
2018-08-24T15:47:28.494Z,5.95
2018-08-24T15:49:56.735Z,5.72
2018-08-24T15:52:25.034Z,5.67
2018-08-24T15:54:53.416Z,5.33
2018-08-24T15:57:21.954Z,5.80
2018-08-24T15:59:50.256Z,5.87
2018-08-24T16:02:18.509Z,5.33
2018-08-24T16:04:46.773Z,5.25
2018-08-24T16:07:14.970Z,5.30
2018-08-24T16:09:43.228Z,5.00
2018-08-24T16:12:11.469Z,5.70
2018-08-24T16:14:39.670Z,5.22
2018-08-24T16:17:07.907Z,4.90
2018-08-24T16:19:36.137Z,5.37
2018-08-24T16:22:04.450Z,5.22
2018-08-24T16:24:32.909Z,4.97
2018-08-24T16:27:01.079Z,4.95
2018-08-24T16:29:29.312Z,5.28
2018-08-24T16:31:57.538Z,5.05
2018-08-24T16:34:25.798Z,5.47
2018-08-24T16:36:54.026Z,5.90
2018-08-24T16:39:22.220Z,5.50
2018-08-24T16:41:50.445Z,5.25
2018-08-24T16:44:18.669Z,5.08
2018-08-24T16:46:47.012Z,4.85
2018-08-24T16:49:15.074Z,5.83
2018-08-24T16:51:43.300Z,5.15
2018-08-24T16:54:11.519Z,5.62
2018-08-24T16:56:39.787Z,5.28
2018-08-24T16:59:08.007Z,5.90
2018-08-24T17:01:36.244Z,6.00
2018-08-24T17:04:04.450Z,6.53
2018-08-24T17:06:32.649Z,5.95
2018-08-24T17:09:00.872Z,5.70
2018-08-24T17:11:29.114Z,5.87
2018-08-24T17:13:57.322Z,6.10
2018-08-24T17:16:25.530Z,6.15
2018-08-24T17:18:53.737Z,6.30
2018-08-24T17:21:21.949Z,6.10
2018-08-24T17:23:50.175Z,6.65
2018-08-24T17:26:18.435Z,6.78
2018-08-24T17:28:46.720Z,6.70
2018-08-24T17:31:14.859Z,6.37
2018-08-24T17:33:43.096Z,6.50
2018-08-24T17:36:11.331Z,6.83
2018-08-24T17:38:39.551Z,6.80
2018-08-24T17:41:07.783Z,6.60
2018-08-24T17:43:36.050Z,5.92
2018-08-24T17:46:04.284Z,6.30
2018-08-24T17:48:32.534Z,6.87
2018-08-24T17:51:00.776Z,6.85
2018-08-24T17:53:29.028Z,6.22
2018-08-24T17:55:57.295Z,7.25
2018-08-24T17:58:25.530Z,6.80
2018-08-24T18:00:53.753Z,6.50
2018-08-24T18:03:22.087Z,6.80
2018-08-24T18:05:50.326Z,6.83
2018-08-24T18:08:18.558Z,6.75
2018-08-24T18:10:46.777Z,6.20
2018-08-24T18:13:14.972Z,6.47
2018-08-24T18:15:43.194Z,6.80
2018-08-24T18:18:11.430Z,6.62
2018-08-24T18:20:39.663Z,6.47
2018-08-24T18:23:08.127Z,6.15
2018-08-24T18:25:36.374Z,6.65
2018-08-24T18:28:04.660Z,6.47
2018-08-24T18:30:32.875Z,7.12
2018-08-24T18:33:01.124Z,7.17
2018-08-24T18:35:29.279Z,6.83
2018-08-24T18:37:57.528Z,6.92
2018-08-24T18:40:25.765Z,6.40
2018-08-24T18:42:53.958Z,6.33
2018-08-24T18:45:22.231Z,6.37
2018-08-24T18:47:50.434Z,6.33
2018-08-24T18:50:18.670Z,6.08
2018-08-24T18:52:46.954Z,6.90
2018-08-24T18:55:15.224Z,6.95
2018-08-24T18:57:43.497Z,6.60
2018-08-24T19:00:11.658Z,6.70
2018-08-24T19:02:39.840Z,6.58
2018-08-24T19:05:08.040Z,6.72
2018-08-24T19:07:37.111Z,6.55
2018-08-24T19:10:05.331Z,7.00
2018-08-24T19:12:33.559Z,6.15
2018-08-24T19:15:01.748Z,6.87
2018-08-24T19:17:35.351Z,6.60
2018-08-24T19:20:09.050Z,6.78
2018-08-24T19:22:37.242Z,6.75
2018-08-24T19:25:05.460Z,6.70
2018-08-24T19:27:39.155Z,7.10
2018-08-24T19:30:12.833Z,6.87
2018-08-24T19:32:41.124Z,7.17
2018-08-24T19:35:09.260Z,6.67
2018-08-24T19:37:37.553Z,6.35
2018-08-24T19:40:11.486Z,6.72
2018-08-24T19:42:39.698Z,6.12
2018-08-24T19:45:07.885Z,5.80
2018-08-24T19:47:41.646Z,5.70
2018-08-24T19:50:09.857Z,5.62
2018-08-24T19:52:38.072Z,5.20
2018-08-24T19:55:06.311Z,5.05
2018-08-24T19:57:39.994Z,5.25
2018-08-24T20:00:08.203Z,4.65
2018-08-24T20:02:36.487Z,4.85
2018-08-24T20:05:04.973Z,4.53
2018-08-24T20:07:38.557Z,4.62
2018-08-24T20:10:11.215Z,3.08
2018-08-24T20:12:39.456Z,3.33
2018-08-24T20:15:13.217Z,3.33
2018-08-24T20:17:41.482Z,3.12
2018-08-24T20:20:09.717Z,3.10
2018-08-24T20:22:37.957Z,3.15
2018-08-24T20:25:06.252Z,4.03
2018-08-24T20:27:34.507Z,3.10
2018-08-24T20:30:02.738Z,3.15
2018-08-24T20:32:31.177Z,3.60
2018-08-24T20:34:59.422Z,3.27
2018-08-24T20:37:27.947Z,3.30
2018-08-24T20:39:56.231Z,2.87
2018-08-24T20:42:24.463Z,3.15
2018-08-24T20:44:52.678Z,3.10
2018-08-24T20:47:20.979Z,3.37
2018-08-24T20:49:49.160Z,3.42
2018-08-24T20:52:17.420Z,3.65
2018-08-24T20:54:45.704Z,4.12
2018-08-24T20:57:13.934Z,4.00
2018-08-24T20:59:42.162Z,3.70
2018-08-24T21:02:10.636Z,3.90
2018-08-24T21:04:39.106Z,3.83
2018-08-24T21:07:07.453Z,3.47
2018-08-24T21:09:35.707Z,4.17
2018-08-24T21:12:03.948Z,3.90
2018-08-24T21:14:32.221Z,3.90
2018-08-24T21:17:00.439Z,3.20
2018-08-24T21:19:28.940Z,3.40
2018-08-24T21:21:57.131Z,3.90
2018-08-24T21:24:25.778Z,4.45
2018-08-24T21:26:54.031Z,4.05
2018-08-24T21:29:22.323Z,4.22
2018-08-24T21:31:50.560Z,4.33
2018-08-24T21:34:18.794Z,4.42
2018-08-24T21:36:46.995Z,4.62
2018-08-24T21:39:15.224Z,4.60
2018-08-24T21:41:43.438Z,4.55
2018-08-24T21:44:11.768Z,4.60
2018-08-24T21:46:40.163Z,4.67
2018-08-24T21:49:08.318Z,4.00
2018-08-24T21:51:36.532Z,4.00
2018-08-24T21:54:04.731Z,5.00
2018-08-24T21:56:32.922Z,4.92
2018-08-24T21:59:01.353Z,4.78
2018-08-24T22:01:29.592Z,5.33
2018-08-24T22:03:57.786Z,5.40
2018-08-24T22:06:26.005Z,5.00
2018-08-24T22:08:54.223Z,5.28
2018-08-24T22:11:22.414Z,6.03
2018-08-24T22:13:50.619Z,5.55
2018-08-24T22:16:18.820Z,4.85
2018-08-24T22:18:47.030Z,4.85
2018-08-24T22:21:15.235Z,4.45
2018-08-24T22:23:44.552Z,4.33
2018-08-24T22:26:12.820Z,3.62
2018-08-24T22:28:41.029Z,4.00
2018-08-24T22:31:09.270Z,3.85
2018-08-24T22:33:37.491Z,3.40
2018-08-24T22:36:05.744Z,3.42
2018-08-24T22:38:33.934Z,3.40
2018-08-24T22:41:02.135Z,3.45
2018-08-24T22:43:35.592Z,3.70
2018-08-24T22:46:04.159Z,3.37
2018-08-24T22:48:33.005Z,3.08
2018-08-24T22:51:01.448Z,3.95
2018-08-24T22:53:29.659Z,2.87
2018-08-24T22:55:58.626Z,2.95
2018-08-24T22:58:27.197Z,3.40
2018-08-24T23:00:55.428Z,3.00
2018-08-24T23:03:23.642Z,3.58
2018-08-24T23:05:51.854Z,3.40
2018-08-24T23:08:20.081Z,3.60
2018-08-24T23:10:48.288Z,3.10
2018-08-24T23:13:16.523Z,3.90
2018-08-24T23:15:44.717Z,3.17
2018-08-24T23:18:12.922Z,3.42
2018-08-24T23:20:41.118Z,3.45
2018-08-24T23:23:15.971Z,3.50
2018-08-24T23:25:44.188Z,3.60
2018-08-24T23:28:12.379Z,3.90
2018-08-24T23:30:40.570Z,3.50
2018-08-24T23:33:08.790Z,3.05
2018-08-24T23:35:36.979Z,3.60
2018-08-24T23:38:05.190Z,3.30
2018-08-24T23:40:33.403Z,3.80
2018-08-24T23:43:01.575Z,3.45
2018-08-24T23:45:29.776Z,3.55
2018-08-24T23:47:57.956Z,4.08
2018-08-24T23:50:26.156Z,4.28
2018-08-24T23:52:54.352Z,4.30
2018-08-24T23:55:22.545Z,4.10
2018-08-24T23:57:50.740Z,4.20
